sensor_id;sensor_type;location;lat;lon;timestamp;P1;durP1;ratioP1;P2;durP2;ratioP2
31724;SDS011;18306;40.960;14.836;2022-09-13T00:02:19;5.28;;;2.22;;
31724;SDS011;18306;40.960;14.836;2022-09-13T00:04:46;6.35;;;2.70;;
31724;SDS011;18306;40.960;14.836;2022-09-13T00:07:13;4.35;;;2.22;;
31724;SDS011;18306;40.960;14.836;2022-09-13T00:09:40;3.50;;;2.08;;
31724;SDS011;18306;40.960;14.836;2022-09-13T00:12:07;4.43;;;2.20;;
31724;SDS011;18306;40.960;14.836;2022-09-13T00:14:35;12.80;;;2.10;;
31724;SDS011;18306;40.960;14.836;2022-09-13T00:17:02;1.92;;;1.65;;
31724;SDS011;18306;40.960;14.836;2022-09-13T00:22:29;5.28;;;2.63;;
31724;SDS011;18306;40.960;14.836;2022-09-13T00:24:56;3.97;;;2.05;;
31724;SDS011;18306;40.960;14.836;2022-09-13T00:27:23;11.55;;;2.33;;
31724;SDS011;18306;40.960;14.836;2022-09-13T00:29:50;3.17;;;1.98;;
31724;SDS011;18306;40.960;14.836;2022-09-13T00:32:17;2.75;;;1.70;;
31724;SDS011;18306;40.960;14.836;2022-09-13T00:34:45;2.78;;;2.13;;
31724;SDS011;18306;40.960;14.836;2022-09-13T00:37:12;7.28;;;3.08;;
31724;SDS011;18306;40.960;14.836;2022-09-13T00:39:42;3.10;;;2.20;;
31724;SDS011;18306;40.960;14.836;2022-09-13T00:42:10;4.95;;;1.60;;
31724;SDS011;18306;40.960;14.836;2022-09-13T00:44:55;3.08;;;2.45;;
31724;SDS011;18306;40.960;14.836;2022-09-13T00:50:20;2.58;;;1.98;;
31724;SDS011;18306;40.960;14.836;2022-09-13T00:53:04;3.30;;;2.15;;
31724;SDS011;18306;40.960;14.836;2022-09-13T00:55:44;3.28;;;2.20;;
31724;SDS011;18306;40.960;14.836;2022-09-13T00:58:26;1.95;;;1.73;;
31724;SDS011;18306;40.960;14.836;2022-09-13T01:00:58;4.80;;;2.33;;
31724;SDS011;18306;40.960;14.836;2022-09-13T01:03:29;5.78;;;2.70;;
31724;SDS011;18306;40.960;14.836;2022-09-13T01:06:00;6.43;;;2.15;;
31724;SDS011;18306;40.960;14.836;2022-09-13T01:08:33;2.45;;;1.48;;
31724;SDS011;18306;40.960;14.836;2022-09-13T01:11:02;6.07;;;2.72;;
31724;SDS011;18306;40.960;14.836;2022-09-13T01:13:37;3.28;;;1.98;;
31724;SDS011;18306;40.960;14.836;2022-09-13T01:16:05;4.90;;;2.38;;
31724;SDS011;18306;40.960;14.836;2022-09-13T01:18:32;3.08;;;1.88;;
31724;SDS011;18306;40.960;14.836;2022-09-13T01:27:22;6.88;;;2.35;;
31724;SDS011;18306;40.960;14.836;2022-09-13T01:30:14;2.00;;;1.80;;
31724;SDS011;18306;40.960;14.836;2022-09-13T01:41:31;7.15;;;2.55;;
31724;SDS011;18306;40.960;14.836;2022-09-13T01:46:45;8.60;;;1.73;;
31724;SDS011;18306;40.960;14.836;2022-09-13T01:52:15;3.00;;;1.98;;
31724;SDS011;18306;40.960;14.836;2022-09-13T01:55:08;2.13;;;1.08;;
31724;SDS011;18306;40.960;14.836;2022-09-13T02:00:40;3.88;;;2.08;;
31724;SDS011;18306;40.960;14.836;2022-09-13T02:03:16;2.42;;;1.80;;
31724;SDS011;18306;40.960;14.836;2022-09-13T02:05:51;13.60;;;2.05;;
31724;SDS011;18306;40.960;14.836;2022-09-13T02:08:24;1.90;;;1.35;;
31724;SDS011;18306;40.960;14.836;2022-09-13T02:11:10;1.35;;;1.25;;
31724;SDS011;18306;40.960;14.836;2022-09-13T02:13:47;2.78;;;1.88;;
31724;SDS011;18306;40.960;14.836;2022-09-13T02:19:09;6.15;;;1.95;;
31724;SDS011;18306;40.960;14.836;2022-09-13T02:21:50;4.32;;;2.05;;
31724;SDS011;18306;40.960;14.836;2022-09-13T02:24:23;10.23;;;1.33;;
31724;SDS011;18306;40.960;14.836;2022-09-13T02:26:57;2.72;;;1.67;;
31724;SDS011;18306;40.960;14.836;2022-09-13T02:29:28;8.68;;;2.42;;
31724;SDS011;18306;40.960;14.836;2022-09-13T02:34:37;5.93;;;2.00;;
31724;SDS011;18306;40.960;14.836;2022-09-13T02:37:13;3.58;;;1.77;;
31724;SDS011;18306;40.960;14.836;2022-09-13T02:39:42;5.07;;;1.88;;
31724;SDS011;18306;40.960;14.836;2022-09-13T02:42:20;6.40;;;1.95;;
31724;SDS011;18306;40.960;14.836;2022-09-13T02:45:10;5.20;;;2.05;;
31724;SDS011;18306;40.960;14.836;2022-09-13T02:47:56;4.53;;;1.65;;
31724;SDS011;18306;40.960;14.836;2022-09-13T02:59:17;1.30;;;1.20;;
31724;SDS011;18306;40.960;14.836;2022-09-13T03:04:31;1.65;;;1.55;;
31724;SDS011;18306;40.960;14.836;2022-09-13T03:06:59;11.85;;;1.83;;
31724;SDS011;18306;40.960;14.836;2022-09-13T03:09:30;1.98;;;1.40;;
31724;SDS011;18306;40.960;14.836;2022-09-13T03:14:53;3.40;;;1.02;;
31724;SDS011;18306;40.960;14.836;2022-09-13T03:17:34;2.78;;;1.48;;
31724;SDS011;18306;40.960;14.836;2022-09-13T03:31:40;4.37;;;1.97;;
31724;SDS011;18306;40.960;14.836;2022-09-13T03:34:12;10.02;;;2.80;;
31724;SDS011;18306;40.960;14.836;2022-09-13T03:37:05;2.67;;;1.95;;
31724;SDS011;18306;40.960;14.836;2022-09-13T03:39:47;4.70;;;1.67;;
31724;SDS011;18306;40.960;14.836;2022-09-13T03:42:34;2.50;;;1.63;;
31724;SDS011;18306;40.960;14.836;2022-09-13T03:45:19;5.10;;;1.98;;
31724;SDS011;18306;40.960;14.836;2022-09-13T03:47:50;3.10;;;1.63;;
31724;SDS011;18306;40.960;14.836;2022-09-13T03:50:19;2.47;;;1.92;;
31724;SDS011;18306;40.960;14.836;2022-09-13T03:52:57;3.60;;;1.85;;
31724;SDS011;18306;40.960;14.836;2022-09-13T03:55:31;2.70;;;1.77;;
31724;SDS011;18306;40.960;14.836;2022-09-13T03:58:00;4.97;;;2.10;;
31724;SDS011;18306;40.960;14.836;2022-09-13T04:00:27;3.22;;;1.45;;
31724;SDS011;18306;40.960;14.836;2022-09-13T04:02:54;2.35;;;2.08;;
31724;SDS011;18306;40.960;14.836;2022-09-13T04:05:22;6.90;;;2.03;;
31724;SDS011;18306;40.960;14.836;2022-09-13T04:07:52;2.60;;;1.05;;
31724;SDS011;18306;40.960;14.836;2022-09-13T04:10:19;4.05;;;2.13;;
31724;SDS011;18306;40.960;14.836;2022-09-13T04:12:46;13.27;;;2.55;;
31724;SDS011;18306;40.960;14.836;2022-09-13T04:15:14;6.63;;;2.00;;
31724;SDS011;18306;40.960;14.836;2022-09-13T04:17:42;10.32;;;2.35;;
31724;SDS011;18306;40.960;14.836;2022-09-13T04:20:09;4.53;;;2.25;;
31724;SDS011;18306;40.960;14.836;2022-09-13T04:22:36;3.17;;;1.90;;
31724;SDS011;18306;40.960;14.836;2022-09-13T04:25:04;18.55;;;2.25;;
31724;SDS011;18306;40.960;14.836;2022-09-13T04:27:32;4.35;;;2.35;;
31724;SDS011;18306;40.960;14.836;2022-09-13T04:30:00;4.28;;;2.15;;
31724;SDS011;18306;40.960;14.836;2022-09-13T04:32:27;1.73;;;1.35;;
31724;SDS011;18306;40.960;14.836;2022-09-13T04:34:55;4.45;;;2.03;;
31724;SDS011;18306;40.960;14.836;2022-09-13T04:37:22;5.90;;;2.20;;
31724;SDS011;18306;40.960;14.836;2022-09-13T04:39:49;3.72;;;2.67;;
31724;SDS011;18306;40.960;14.836;2022-09-13T04:42:16;6.35;;;2.42;;
31724;SDS011;18306;40.960;14.836;2022-09-13T04:44:44;2.33;;;1.48;;
31724;SDS011;18306;40.960;14.836;2022-09-13T04:47:11;4.82;;;1.58;;
31724;SDS011;18306;40.960;14.836;2022-09-13T04:49:38;5.63;;;3.40;;
31724;SDS011;18306;40.960;14.836;2022-09-13T04:52:05;2.65;;;2.15;;
31724;SDS011;18306;40.960;14.836;2022-09-13T04:54:33;5.80;;;2.55;;
31724;SDS011;18306;40.960;14.836;2022-09-13T04:57:00;4.07;;;2.50;;
31724;SDS011;18306;40.960;14.836;2022-09-13T04:59:27;5.88;;;3.17;;
31724;SDS011;18306;40.960;14.836;2022-09-13T05:01:54;4.60;;;1.88;;
31724;SDS011;18306;40.960;14.836;2022-09-13T05:04:22;6.07;;;1.77;;
31724;SDS011;18306;40.960;14.836;2022-09-13T05:06:49;4.50;;;2.38;;
31724;SDS011;18306;40.960;14.836;2022-09-13T05:09:16;3.63;;;2.17;;
31724;SDS011;18306;40.960;14.836;2022-09-13T05:11:43;4.18;;;2.22;;
31724;SDS011;18306;40.960;14.836;2022-09-13T05:14:10;1.13;;;1.13;;
31724;SDS011;18306;40.960;14.836;2022-09-13T05:16:37;2.65;;;1.80;;
31724;SDS011;18306;40.960;14.836;2022-09-13T05:19:05;1.23;;;1.10;;
31724;SDS011;18306;40.960;14.836;2022-09-13T05:21:32;3.47;;;1.58;;
31724;SDS011;18306;40.960;14.836;2022-09-13T05:23:59;2.90;;;1.27;;
31724;SDS011;18306;40.960;14.836;2022-09-13T05:26:27;3.05;;;1.38;;
31724;SDS011;18306;40.960;14.836;2022-09-13T05:28:58;11.25;;;1.88;;
31724;SDS011;18306;40.960;14.836;2022-09-13T05:31:28;3.78;;;1.77;;
31724;SDS011;18306;40.960;14.836;2022-09-13T05:34:02;2.33;;;1.63;;
31724;SDS011;18306;40.960;14.836;2022-09-13T05:36:32;2.13;;;1.43;;
31724;SDS011;18306;40.960;14.836;2022-09-13T05:38:59;3.85;;;2.15;;
31724;SDS011;18306;40.960;14.836;2022-09-13T05:41:27;4.25;;;2.28;;
31724;SDS011;18306;40.960;14.836;2022-09-13T05:43:54;2.13;;;1.38;;
31724;SDS011;18306;40.960;14.836;2022-09-13T05:46:21;2.97;;;1.75;;
31724;SDS011;18306;40.960;14.836;2022-09-13T05:48:48;3.25;;;1.98;;
31724;SDS011;18306;40.960;14.836;2022-09-13T05:51:16;2.53;;;1.63;;
31724;SDS011;18306;40.960;14.836;2022-09-13T05:53:46;4.43;;;1.63;;
31724;SDS011;18306;40.960;14.836;2022-09-13T05:56:18;5.40;;;2.55;;
31724;SDS011;18306;40.960;14.836;2022-09-13T05:58:51;6.60;;;2.30;;
31724;SDS011;18306;40.960;14.836;2022-09-13T06:01:21;4.60;;;2.20;;
31724;SDS011;18306;40.960;14.836;2022-09-13T06:03:53;5.38;;;2.58;;
31724;SDS011;18306;40.960;14.836;2022-09-13T06:06:23;2.10;;;1.52;;
31724;SDS011;18306;40.960;14.836;2022-09-13T06:08:56;2.95;;;1.92;;
31724;SDS011;18306;40.960;14.836;2022-09-13T06:11:24;3.58;;;2.78;;
31724;SDS011;18306;40.960;14.836;2022-09-13T06:13:52;4.78;;;2.78;;
31724;SDS011;18306;40.960;14.836;2022-09-13T06:16:19;3.15;;;2.55;;
31724;SDS011;18306;40.960;14.836;2022-09-13T06:18:47;5.25;;;2.47;;
31724;SDS011;18306;40.960;14.836;2022-09-13T06:21:16;14.38;;;3.70;;
31724;SDS011;18306;40.960;14.836;2022-09-13T06:23:46;15.52;;;3.42;;
31724;SDS011;18306;40.960;14.836;2022-09-13T06:26:15;4.78;;;2.40;;
31724;SDS011;18306;40.960;14.836;2022-09-13T06:28:46;9.23;;;2.97;;
31724;SDS011;18306;40.960;14.836;2022-09-13T06:31:15;7.90;;;2.33;;
31724;SDS011;18306;40.960;14.836;2022-09-13T06:33:43;6.32;;;2.55;;
31724;SDS011;18306;40.960;14.836;2022-09-13T06:36:12;3.22;;;2.35;;
31724;SDS011;18306;40.960;14.836;2022-09-13T06:41:15;3.05;;;2.35;;
31724;SDS011;18306;40.960;14.836;2022-09-13T06:43:50;13.32;;;2.40;;
31724;SDS011;18306;40.960;14.836;2022-09-13T06:46:19;11.43;;;3.72;;
31724;SDS011;18306;40.960;14.836;2022-09-13T06:48:46;6.18;;;2.10;;
31724;SDS011;18306;40.960;14.836;2022-09-13T06:51:15;4.80;;;2.55;;
31724;SDS011;18306;40.960;14.836;2022-09-13T06:53:44;5.90;;;2.05;;
31724;SDS011;18306;40.960;14.836;2022-09-13T06:56:14;4.03;;;2.10;;
31724;SDS011;18306;40.960;14.836;2022-09-13T06:58:44;4.75;;;1.75;;
31724;SDS011;18306;40.960;14.836;2022-09-13T07:01:15;8.73;;;2.30;;
31724;SDS011;18306;40.960;14.836;2022-09-13T07:03:51;5.25;;;2.38;;
31724;SDS011;18306;40.960;14.836;2022-09-13T07:06:21;8.13;;;2.25;;
31724;SDS011;18306;40.960;14.836;2022-09-13T07:08:50;4.50;;;2.72;;
31724;SDS011;18306;40.960;14.836;2022-09-13T07:11:20;2.25;;;1.48;;
31724;SDS011;18306;40.960;14.836;2022-09-13T07:13:52;2.03;;;1.70;;
31724;SDS011;18306;40.960;14.836;2022-09-13T07:16:23;4.40;;;1.92;;
31724;SDS011;18306;40.960;14.836;2022-09-13T07:18:58;4.28;;;1.85;;
31724;SDS011;18306;40.960;14.836;2022-09-13T07:21:30;3.35;;;1.45;;
31724;SDS011;18306;40.960;14.836;2022-09-13T07:23:58;10.32;;;2.30;;
31724;SDS011;18306;40.960;14.836;2022-09-13T07:26:27;1.00;;;0.93;;
31724;SDS011;18306;40.960;14.836;2022-09-13T07:28:55;1.80;;;1.10;;
31724;SDS011;18306;40.960;14.836;2022-09-13T07:31:25;4.47;;;1.98;;
31724;SDS011;18306;40.960;14.836;2022-09-13T07:33:55;1.33;;;0.90;;
31724;SDS011;18306;40.960;14.836;2022-09-13T07:36:24;4.43;;;0.68;;
31724;SDS011;18306;40.960;14.836;2022-09-13T07:38:54;2.25;;;1.10;;
31724;SDS011;18306;40.960;14.836;2022-09-13T07:41:22;1.15;;;0.80;;
31724;SDS011;18306;40.960;14.836;2022-09-13T07:43:50;1.85;;;1.05;;
31724;SDS011;18306;40.960;14.836;2022-09-13T07:46:19;1.10;;;0.93;;
31724;SDS011;18306;40.960;14.836;2022-09-13T07:48:48;1.02;;;0.85;;
31724;SDS011;18306;40.960;14.836;2022-09-13T07:51:18;1.70;;;1.13;;
31724;SDS011;18306;40.960;14.836;2022-09-13T07:53:51;5.50;;;1.13;;
31724;SDS011;18306;40.960;14.836;2022-09-13T07:56:22;1.20;;;1.10;;
31724;SDS011;18306;40.960;14.836;2022-09-13T07:58:51;1.75;;;1.05;;
31724;SDS011;18306;40.960;14.836;2022-09-13T08:01:21;5.00;;;1.02;;
31724;SDS011;18306;40.960;14.836;2022-09-13T08:03:53;3.50;;;1.23;;
31724;SDS011;18306;40.960;14.836;2022-09-13T08:06:22;2.05;;;1.52;;
31724;SDS011;18306;40.960;14.836;2022-09-13T08:08:55;0.73;;;0.70;;
31724;SDS011;18306;40.960;14.836;2022-09-13T08:11:36;5.30;;;1.08;;
31724;SDS011;18306;40.960;14.836;2022-09-13T08:14:05;1.08;;;0.90;;
31724;SDS011;18306;40.960;14.836;2022-09-13T08:16:34;1.85;;;0.77;;
31724;SDS011;18306;40.960;14.836;2022-09-13T08:19:02;0.63;;;0.63;;
31724;SDS011;18306;40.960;14.836;2022-09-13T08:21:31;1.55;;;0.65;;
31724;SDS011;18306;40.960;14.836;2022-09-13T08:24:03;2.72;;;0.95;;
31724;SDS011;18306;40.960;14.836;2022-09-13T08:26:32;1.25;;;1.08;;
31724;SDS011;18306;40.960;14.836;2022-09-13T08:29:02;3.40;;;1.13;;
31724;SDS011;18306;40.960;14.836;2022-09-13T08:31:31;1.10;;;0.50;;
31724;SDS011;18306;40.960;14.836;2022-09-13T08:33:58;1.35;;;0.52;;
31724;SDS011;18306;40.960;14.836;2022-09-13T08:36:27;5.25;;;1.05;;
31724;SDS011;18306;40.960;14.836;2022-09-13T08:38:58;1.70;;;0.82;;
31724;SDS011;18306;40.960;14.836;2022-09-13T08:47:03;0.93;;;0.45;;
31724;SDS011;18306;40.960;14.836;2022-09-13T08:49:51;3.00;;;0.75;;
31724;SDS011;18306;40.960;14.836;2022-09-13T08:52:32;1.17;;;0.73;;
31724;SDS011;18306;40.960;14.836;2022-09-13T08:55:14;0.40;;;0.40;;
31724;SDS011;18306;40.960;14.836;2022-09-13T08:57:58;0.80;;;0.55;;
31724;SDS011;18306;40.960;14.836;2022-09-13T09:00:48;1.35;;;0.70;;
31724;SDS011;18306;40.960;14.836;2022-09-13T09:04:04;4.35;;;0.60;;
31724;SDS011;18306;40.960;14.836;2022-09-13T09:06:17;0.30;;;0.20;;
31724;SDS011;18306;40.960;14.836;2022-09-13T09:08:47;0.50;;;0.25;;
31724;SDS011;18306;40.960;14.836;2022-09-13T09:11:25;0.55;;;0.30;;
31724;SDS011;18306;40.960;14.836;2022-09-13T09:17:03;4.68;;;0.75;;
31724;SDS011;18306;40.960;14.836;2022-09-13T09:22:51;1.27;;;0.70;;
31724;SDS011;18306;40.960;14.836;2022-09-13T09:25:23;0.52;;;0.50;;
31724;SDS011;18306;40.960;14.836;2022-09-13T09:27:52;0.93;;;0.47;;
31724;SDS011;18306;40.960;14.836;2022-09-13T09:30:19;2.03;;;0.68;;
31724;SDS011;18306;40.960;14.836;2022-09-13T09:38:41;0.80;;;0.60;;
31724;SDS011;18306;40.960;14.836;2022-09-13T09:41:13;1.30;;;0.68;;
31724;SDS011;18306;40.960;14.836;2022-09-13T09:46:31;2.17;;;0.65;;
31724;SDS011;18306;40.960;14.836;2022-09-13T09:49:04;2.22;;;0.82;;
31724;SDS011;18306;40.960;14.836;2022-09-13T09:52:09;1.70;;;0.75;;
31724;SDS011;18306;40.960;14.836;2022-09-13T09:54:40;1.60;;;0.73;;
31724;SDS011;18306;40.960;14.836;2022-09-13T09:57:07;2.83;;;0.70;;
31724;SDS011;18306;40.960;14.836;2022-09-13T09:59:35;1.90;;;0.88;;
31724;SDS011;18306;40.960;14.836;2022-09-13T10:02:18;0.60;;;0.60;;
31724;SDS011;18306;40.960;14.836;2022-09-13T10:04:56;1.30;;;0.80;;
31724;SDS011;18306;40.960;14.836;2022-09-13T10:10:04;0.68;;;0.40;;
31724;SDS011;18306;40.960;14.836;2022-09-13T10:12:48;0.80;;;0.80;;
31724;SDS011;18306;40.960;14.836;2022-09-13T10:15:19;10.38;;;1.85;;
31724;SDS011;18306;40.960;14.836;2022-09-13T10:18:04;2.60;;;0.80;;
31724;SDS011;18306;40.960;14.836;2022-09-13T10:20:41;2.85;;;1.20;;
31724;SDS011;18306;40.960;14.836;2022-09-13T10:23:27;4.28;;;1.05;;
31724;SDS011;18306;40.960;14.836;2022-09-13T10:26:03;1.65;;;0.73;;
31724;SDS011;18306;40.960;14.836;2022-09-13T10:28:38;1.85;;;0.82;;
31724;SDS011;18306;40.960;14.836;2022-09-13T10:31:28;3.10;;;1.50;;
31724;SDS011;18306;40.960;14.836;2022-09-13T10:34:00;0.60;;;0.60;;
31724;SDS011;18306;40.960;14.836;2022-09-13T10:36:31;1.17;;;0.68;;
31724;SDS011;18306;40.960;14.836;2022-09-13T10:39:14;2.50;;;1.02;;
31724;SDS011;18306;40.960;14.836;2022-09-13T10:41:50;0.22;;;0.22;;
31724;SDS011;18306;40.960;14.836;2022-09-13T10:44:26;0.63;;;0.50;;
31724;SDS011;18306;40.960;14.836;2022-09-13T10:47:04;1.02;;;0.80;;
31724;SDS011;18306;40.960;14.836;2022-09-13T10:52:29;2.33;;;0.80;;
31724;SDS011;18306;40.960;14.836;2022-09-13T11:03:29;0.85;;;0.50;;
31724;SDS011;18306;40.960;14.836;2022-09-13T11:06:28;2.63;;;0.63;;
31724;SDS011;18306;40.960;14.836;2022-09-13T11:09:21;6.72;;;0.82;;
31724;SDS011;18306;40.960;14.836;2022-09-13T11:20:14;0.50;;;0.50;;
31724;SDS011;18306;40.960;14.836;2022-09-13T11:23:16;0.65;;;0.45;;
31724;SDS011;18306;40.960;14.836;2022-09-13T11:26:21;1.13;;;0.50;;
31724;SDS011;18306;40.960;14.836;2022-09-13T11:29:18;2.70;;;1.02;;
31724;SDS011;18306;40.960;14.836;2022-09-13T11:35:00;0.28;;;0.25;;
31724;SDS011;18306;40.960;14.836;2022-09-13T11:40:46;3.05;;;1.00;;
31724;SDS011;18306;40.960;14.836;2022-09-13T11:51:59;0.30;;;0.30;;
31724;SDS011;18306;40.960;14.836;2022-09-13T11:54:40;0.32;;;0.28;;
31724;SDS011;18306;40.960;14.836;2022-09-13T11:57:24;0.30;;;0.30;;
31724;SDS011;18306;40.960;14.836;2022-09-13T12:00:04;1.02;;;0.57;;
31724;SDS011;18306;40.960;14.836;2022-09-13T12:02:36;2.05;;;0.52;;
31724;SDS011;18306;40.960;14.836;2022-09-13T12:05:15;1.17;;;0.60;;
31724;SDS011;18306;40.960;14.836;2022-09-13T12:07:49;0.25;;;0.25;;
31724;SDS011;18306;40.960;14.836;2022-09-13T12:10:51;0.88;;;0.63;;
31724;SDS011;18306;40.960;14.836;2022-09-13T12:13:31;0.40;;;0.27;;
31724;SDS011;18306;40.960;14.836;2022-09-13T12:16:22;1.35;;;0.35;;
31724;SDS011;18306;40.960;14.836;2022-09-13T12:18:53;0.22;;;0.22;;
31724;SDS011;18306;40.960;14.836;2022-09-13T12:21:26;2.30;;;0.47;;
31724;SDS011;18306;40.960;14.836;2022-09-13T12:24:18;1.30;;;0.73;;
31724;SDS011;18306;40.960;14.836;2022-09-13T12:30:38;0.32;;;0.32;;
31724;SDS011;18306;40.960;14.836;2022-09-13T12:32:48;10.65;;;0.85;;
31724;SDS011;18306;40.960;14.836;2022-09-13T12:35:24;0.38;;;0.30;;
31724;SDS011;18306;40.960;14.836;2022-09-13T12:37:57;0.73;;;0.30;;
31724;SDS011;18306;40.960;14.836;2022-09-13T12:40:42;0.75;;;0.30;;
31724;SDS011;18306;40.960;14.836;2022-09-13T13:00:32;2.25;;;0.45;;
31724;SDS011;18306;40.960;14.836;2022-09-13T13:03:11;0.38;;;0.38;;
31724;SDS011;18306;40.960;14.836;2022-09-13T13:05:44;1.13;;;0.40;;
31724;SDS011;18306;40.960;14.836;2022-09-13T13:08:22;1.17;;;0.57;;
31724;SDS011;18306;40.960;14.836;2022-09-13T13:13:42;1.27;;;0.55;;
31724;SDS011;18306;40.960;14.836;2022-09-13T13:16:28;0.28;;;0.28;;
31724;SDS011;18306;40.960;14.836;2022-09-13T13:19:57;4.78;;;0.50;;
31724;SDS011;18306;40.960;14.836;2022-09-13T13:37:02;0.75;;;0.50;;
31724;SDS011;18306;40.960;14.836;2022-09-13T13:39:35;1.65;;;0.57;;
31724;SDS011;18306;40.960;14.836;2022-09-13T13:52:37;0.73;;;0.73;;
31724;SDS011;18306;40.960;14.836;2022-09-13T13:58:03;0.50;;;0.40;;
31724;SDS011;18306;40.960;14.836;2022-09-13T14:00:34;0.35;;;0.35;;
31724;SDS011;18306;40.960;14.836;2022-09-13T14:11:16;1.63;;;0.50;;
31724;SDS011;18306;40.960;14.836;2022-09-13T14:20:07;0.70;;;0.43;;
31724;SDS011;18306;40.960;14.836;2022-09-13T14:22:38;0.75;;;0.65;;
31724;SDS011;18306;40.960;14.836;2022-09-13T14:25:26;3.30;;;0.63;;
31724;SDS011;18306;40.960;14.836;2022-09-13T14:27:53;2.65;;;1.67;;
31724;SDS011;18306;40.960;14.836;2022-09-13T14:30:29;1.95;;;1.13;;
31724;SDS011;18306;40.960;14.836;2022-09-13T14:33:00;7.82;;;1.23;;
31724;SDS011;18306;40.960;14.836;2022-09-13T14:35:33;2.30;;;1.38;;
31724;SDS011;18306;40.960;14.836;2022-09-13T14:41:20;4.07;;;1.58;;
31724;SDS011;18306;40.960;14.836;2022-09-13T14:44:14;1.10;;;1.00;;
31724;SDS011;18306;40.960;14.836;2022-09-13T14:47:18;3.20;;;1.33;;
31724;SDS011;18306;40.960;14.836;2022-09-13T14:49:50;2.10;;;1.45;;
31724;SDS011;18306;40.960;14.836;2022-09-13T14:52:34;2.13;;;1.50;;
31724;SDS011;18306;40.960;14.836;2022-09-13T14:55:26;8.37;;;1.60;;
31724;SDS011;18306;40.960;14.836;2022-09-13T14:57:58;2.63;;;1.27;;
31724;SDS011;18306;40.960;14.836;2022-09-13T15:00:31;1.30;;;0.80;;
31724;SDS011;18306;40.960;14.836;2022-09-13T15:03:10;0.93;;;0.82;;
31724;SDS011;18306;40.960;14.836;2022-09-13T15:05:41;4.63;;;2.05;;
31724;SDS011;18306;40.960;14.836;2022-09-13T15:08:24;7.20;;;1.88;;
31724;SDS011;18306;40.960;14.836;2022-09-13T15:10:58;3.40;;;1.42;;
31724;SDS011;18306;40.960;14.836;2022-09-13T15:13:26;2.15;;;1.50;;
31724;SDS011;18306;40.960;14.836;2022-09-13T15:15:54;2.35;;;1.40;;
31724;SDS011;18306;40.960;14.836;2022-09-13T15:18:22;3.67;;;1.40;;
31724;SDS011;18306;40.960;14.836;2022-09-13T15:20:58;1.55;;;1.13;;
31724;SDS011;18306;40.960;14.836;2022-09-13T15:23:28;4.60;;;1.48;;
31724;SDS011;18306;40.960;14.836;2022-09-13T15:26:08;1.27;;;1.00;;
31724;SDS011;18306;40.960;14.836;2022-09-13T15:28:50;1.23;;;0.90;;
31724;SDS011;18306;40.960;14.836;2022-09-13T15:31:22;1.83;;;1.20;;
31724;SDS011;18306;40.960;14.836;2022-09-13T15:34:10;3.50;;;1.77;;
31724;SDS011;18306;40.960;14.836;2022-09-13T15:36:48;1.92;;;1.10;;
31724;SDS011;18306;40.960;14.836;2022-09-13T15:39:45;2.90;;;1.35;;
31724;SDS011;18306;40.960;14.836;2022-09-13T15:42:26;1.63;;;1.52;;
31724;SDS011;18306;40.960;14.836;2022-09-13T15:44:53;3.22;;;0.93;;
31724;SDS011;18306;40.960;14.836;2022-09-13T15:47:22;3.10;;;0.90;;
31724;SDS011;18306;40.960;14.836;2022-09-13T15:49:50;1.17;;;1.08;;
31724;SDS011;18306;40.960;14.836;2022-09-13T15:52:18;2.30;;;1.50;;
31724;SDS011;18306;40.960;14.836;2022-09-13T15:54:49;3.65;;;1.65;;
31724;SDS011;18306;40.960;14.836;2022-09-13T15:57:20;13.77;;;2.17;;
31724;SDS011;18306;40.960;14.836;2022-09-13T15:59:49;3.97;;;2.00;;
31724;SDS011;18306;40.960;14.836;2022-09-13T16:02:21;7.00;;;1.73;;
31724;SDS011;18306;40.960;14.836;2022-09-13T16:04:54;2.42;;;1.20;;
31724;SDS011;18306;40.960;14.836;2022-09-13T16:07:22;1.63;;;1.13;;
31724;SDS011;18306;40.960;14.836;2022-09-13T16:09:51;1.80;;;1.48;;
31724;SDS011;18306;40.960;14.836;2022-09-13T16:12:18;3.95;;;1.63;;
31724;SDS011;18306;40.960;14.836;2022-09-13T16:14:49;2.03;;;1.02;;
31724;SDS011;18306;40.960;14.836;2022-09-13T16:17:21;2.80;;;1.25;;
31724;SDS011;18306;40.960;14.836;2022-09-13T16:19:50;8.30;;;1.20;;
31724;SDS011;18306;40.960;14.836;2022-09-13T16:22:19;2.28;;;1.60;;
31724;SDS011;18306;40.960;14.836;2022-09-13T16:24:46;3.05;;;1.50;;
31724;SDS011;18306;40.960;14.836;2022-09-13T16:27:21;1.92;;;1.25;;
31724;SDS011;18306;40.960;14.836;2022-09-13T16:29:52;2.00;;;1.60;;
31724;SDS011;18306;40.960;14.836;2022-09-13T16:32:24;2.97;;;1.38;;
31724;SDS011;18306;40.960;14.836;2022-09-13T16:34:58;3.67;;;1.77;;
31724;SDS011;18306;40.960;14.836;2022-09-13T16:37:26;3.13;;;1.80;;
31724;SDS011;18306;40.960;14.836;2022-09-13T16:39:54;5.68;;;1.75;;
31724;SDS011;18306;40.960;14.836;2022-09-13T16:42:25;4.70;;;1.80;;
31724;SDS011;18306;40.960;14.836;2022-09-13T16:44:52;3.28;;;1.90;;
31724;SDS011;18306;40.960;14.836;2022-09-13T16:47:19;3.58;;;1.88;;
31724;SDS011;18306;40.960;14.836;2022-09-13T16:49:46;3.58;;;2.10;;
31724;SDS011;18306;40.960;14.836;2022-09-13T16:52:13;6.68;;;2.22;;
31724;SDS011;18306;40.960;14.836;2022-09-13T16:54:43;4.90;;;1.95;;
31724;SDS011;18306;40.960;14.836;2022-09-13T16:57:14;4.72;;;1.77;;
31724;SDS011;18306;40.960;14.836;2022-09-13T16:59:41;6.10;;;1.08;;
31724;SDS011;18306;40.960;14.836;2022-09-13T17:02:09;6.35;;;1.98;;
31724;SDS011;18306;40.960;14.836;2022-09-13T17:04:36;4.72;;;1.58;;
31724;SDS011;18306;40.960;14.836;2022-09-13T17:07:03;3.72;;;2.38;;
31724;SDS011;18306;40.960;14.836;2022-09-13T17:09:35;12.95;;;3.20;;
31724;SDS011;18306;40.960;14.836;2022-09-13T17:12:03;5.10;;;1.65;;
31724;SDS011;18306;40.960;14.836;2022-09-13T17:14:30;27.92;;;5.43;;
31724;SDS011;18306;40.960;14.836;2022-09-13T17:16:59;12.45;;;4.43;;
31724;SDS011;18306;40.960;14.836;2022-09-13T17:19:28;4.30;;;2.30;;
31724;SDS011;18306;40.960;14.836;2022-09-13T17:21:59;5.88;;;2.35;;
31724;SDS011;18306;40.960;14.836;2022-09-13T17:24:28;18.08;;;3.33;;
31724;SDS011;18306;40.960;14.836;2022-09-13T17:26:58;14.85;;;2.88;;
31724;SDS011;18306;40.960;14.836;2022-09-13T17:29:26;8.23;;;2.13;;
31724;SDS011;18306;40.960;14.836;2022-09-13T17:31:56;6.70;;;2.08;;
31724;SDS011;18306;40.960;14.836;2022-09-13T17:34:25;6.25;;;1.55;;
31724;SDS011;18306;40.960;14.836;2022-09-13T17:36:53;5.97;;;2.03;;
31724;SDS011;18306;40.960;14.836;2022-09-13T17:39:20;22.35;;;2.92;;
31724;SDS011;18306;40.960;14.836;2022-09-13T17:41:48;30.75;;;4.75;;
31724;SDS011;18306;40.960;14.836;2022-09-13T17:44:16;16.30;;;3.45;;
31724;SDS011;18306;40.960;14.836;2022-09-13T17:46:44;10.90;;;3.17;;
31724;SDS011;18306;40.960;14.836;2022-09-13T17:49:11;15.68;;;3.15;;
31724;SDS011;18306;40.960;14.836;2022-09-13T17:51:39;2.85;;;2.40;;
31724;SDS011;18306;40.960;14.836;2022-09-13T17:54:09;5.97;;;2.63;;
31724;SDS011;18306;40.960;14.836;2022-09-13T17:56:39;3.72;;;1.88;;
31724;SDS011;18306;40.960;14.836;2022-09-13T18:01:44;3.20;;;2.25;;
31724;SDS011;18306;40.960;14.836;2022-09-13T18:04:13;4.30;;;2.38;;
31724;SDS011;18306;40.960;14.836;2022-09-13T18:06:42;3.55;;;2.03;;
31724;SDS011;18306;40.960;14.836;2022-09-13T18:09:09;13.75;;;2.80;;
31724;SDS011;18306;40.960;14.836;2022-09-13T18:11:39;3.53;;;2.63;;
31724;SDS011;18306;40.960;14.836;2022-09-13T18:14:09;12.35;;;2.17;;
31724;SDS011;18306;40.960;14.836;2022-09-13T18:16:38;8.82;;;3.92;;
31724;SDS011;18306;40.960;14.836;2022-09-13T18:19:05;6.47;;;3.80;;
31724;SDS011;18306;40.960;14.836;2022-09-13T18:21:33;9.55;;;3.47;;